createdAt,value
2018-10-18T00:00:09.037Z,20.77
2018-10-18T00:03:11.917Z,20.43
2018-10-18T00:06:14.975Z,22.50
2018-10-18T00:09:17.825Z,22.17
2018-10-18T00:12:20.775Z,21.10
2018-10-18T00:15:23.691Z,21.43
2018-10-18T00:18:26.617Z,23.83
2018-10-18T00:21:29.612Z,26.03
2018-10-18T00:24:32.589Z,22.57
2018-10-18T00:27:36.071Z,24.03
2018-10-18T00:30:38.993Z,20.93
2018-10-18T00:33:41.944Z,24.47
2018-10-18T00:36:44.849Z,25.37
2018-10-18T00:39:47.788Z,23.80
2018-10-18T00:42:50.738Z,22.87
2018-10-18T00:45:53.825Z,23.73
2018-10-18T00:48:56.757Z,24.50
2018-10-18T00:51:59.716Z,21.77
2018-10-18T00:55:02.742Z,21.37
2018-10-18T00:58:05.702Z,24.43
2018-10-18T01:01:08.601Z,20.13
2018-10-18T01:04:11.560Z,19.87
2018-10-18T01:07:14.666Z,21.03
2018-10-18T01:10:17.557Z,21.30
2018-10-18T01:13:20.482Z,20.27
2018-10-18T01:16:23.382Z,20.47
2018-10-18T01:19:26.293Z,23.30
2018-10-18T01:22:29.300Z,19.23
2018-10-18T01:25:32.233Z,21.00
2018-10-18T01:28:35.180Z,20.47
2018-10-18T01:31:38.092Z,22.73
2018-10-18T01:34:40.997Z,21.63
2018-10-18T01:37:43.943Z,22.57
2018-10-18T01:40:46.887Z,22.27
2018-10-18T01:43:49.853Z,22.73
2018-10-18T01:46:53.124Z,25.23
2018-10-18T01:49:56.032Z,22.80
2018-10-18T01:52:58.947Z,21.67
2018-10-18T01:56:01.999Z,21.90
2018-10-18T01:59:04.989Z,23.73
2018-10-18T02:02:08.083Z,23.50
2018-10-18T02:05:10.969Z,22.33
2018-10-18T02:08:13.926Z,18.80
2018-10-18T02:11:16.874Z,24.47
2018-10-18T02:14:19.826Z,20.10
2018-10-18T02:17:22.738Z,22.13
2018-10-18T02:20:25.634Z,23.07
2018-10-18T02:23:28.546Z,21.83
2018-10-18T02:26:31.519Z,25.53
2018-10-18T02:29:34.425Z,24.40
2018-10-18T02:32:37.357Z,19.40
2018-10-18T02:35:40.242Z,23.33
2018-10-18T02:38:43.169Z,20.33
2018-10-18T02:41:46.155Z,24.87
2018-10-18T02:44:49.038Z,19.80
2018-10-18T02:47:52.006Z,22.90
2018-10-18T02:50:54.915Z,20.70
2018-10-18T02:53:57.893Z,20.80
2018-10-18T02:57:00.799Z,20.80
2018-10-18T03:00:04.818Z,21.40
2018-10-18T03:03:07.683Z,23.03
2018-10-18T03:06:10.714Z,20.07
2018-10-18T03:09:13.545Z,21.60
2018-10-18T03:12:16.611Z,20.50
2018-10-18T03:15:19.439Z,21.70
2018-10-18T03:18:22.532Z,19.97
2018-10-18T03:21:25.473Z,20.23
2018-10-18T03:24:28.429Z,17.60
2018-10-18T03:27:31.354Z,20.60
2018-10-18T03:30:34.383Z,20.80
2018-10-18T03:33:37.324Z,20.30
2018-10-18T03:36:40.248Z,19.23
2018-10-18T03:39:43.146Z,20.47
2018-10-18T03:42:46.084Z,20.20
2018-10-18T03:45:49.140Z,21.53
2018-10-18T03:48:52.093Z,21.20
2018-10-18T03:51:55.085Z,21.93
2018-10-18T03:54:58.022Z,21.67
2018-10-18T03:58:01.487Z,21.73
2018-10-18T04:01:04.481Z,18.17
2018-10-18T04:04:07.429Z,23.00
2018-10-18T04:07:10.433Z,19.80
2018-10-18T04:10:13.345Z,19.67
2018-10-18T04:13:16.271Z,20.20
2018-10-18T04:16:19.184Z,19.23
2018-10-18T04:19:22.085Z,21.60
2018-10-18T04:22:25.053Z,20.73
2018-10-18T04:25:27.967Z,21.93
2018-10-18T04:28:31.801Z,22.60
2018-10-18T04:31:34.692Z,20.17
2018-10-18T04:34:37.641Z,19.97
2018-10-18T04:37:40.590Z,21.87
2018-10-18T04:40:43.523Z,19.30
2018-10-18T04:43:46.434Z,21.90
2018-10-18T04:46:49.356Z,20.50
2018-10-18T04:49:52.341Z,21.60
2018-10-18T04:52:55.280Z,19.20
2018-10-18T04:55:58.236Z,23.17
2018-10-18T04:59:01.168Z,18.77
2018-10-18T05:02:04.577Z,20.40
2018-10-18T05:05:24.897Z,20.20
2018-10-18T05:08:28.249Z,20.83
2018-10-18T05:11:31.244Z,19.73
2018-10-18T05:14:34.108Z,19.83
2018-10-18T05:17:37.050Z,20.80
2018-10-18T05:20:40.048Z,20.43
2018-10-18T05:23:43.034Z,20.20
2018-10-18T05:26:45.949Z,17.33
2018-10-18T05:29:48.900Z,18.97
2018-10-18T05:32:51.833Z,19.93
2018-10-18T05:35:54.742Z,19.13
2018-10-18T05:38:57.675Z,17.00
2018-10-18T05:42:00.597Z,19.83
2018-10-18T05:45:04.321Z,20.07
2018-10-18T05:48:07.333Z,18.83
2018-10-18T05:51:10.281Z,17.97
2018-10-18T05:54:13.254Z,18.37
2018-10-18T05:57:16.153Z,21.20
2018-10-18T06:00:19.273Z,18.13
2018-10-18T06:03:22.204Z,20.23
2018-10-18T06:06:25.183Z,21.00
2018-10-18T06:09:31.875Z,18.93
2018-10-18T06:12:34.709Z,19.60
2018-10-18T06:15:37.676Z,19.77
2018-10-18T06:18:40.589Z,19.10
2018-10-18T06:21:43.510Z,19.23
2018-10-18T06:24:46.438Z,17.87
2018-10-18T06:27:49.932Z,20.83
2018-10-18T06:30:52.824Z,18.50
2018-10-18T06:33:55.712Z,19.70
2018-10-18T06:36:58.627Z,18.00
2018-10-18T06:40:01.530Z,20.00
2018-10-18T06:43:04.913Z,18.50
2018-10-18T06:46:10.741Z,19.27
2018-10-18T06:49:13.749Z,15.90
2018-10-18T06:52:16.522Z,18.67
2018-10-18T06:55:19.503Z,17.70
2018-10-18T06:58:22.472Z,20.50
2018-10-18T07:01:25.368Z,18.07
2018-10-18T07:04:28.289Z,19.30
2018-10-18T07:07:31.225Z,19.73
2018-10-18T07:10:34.161Z,21.23
2018-10-18T07:13:37.081Z,19.60
2018-10-18T07:16:39.985Z,17.20
2018-10-18T07:19:42.885Z,18.30
2018-10-18T07:22:45.819Z,19.37
2018-10-18T07:25:48.711Z,17.50
2018-10-18T07:28:51.602Z,18.40
2018-10-18T07:31:54.572Z,15.87
2018-10-18T07:34:57.623Z,15.33
2018-10-18T07:38:00.796Z,14.17
2018-10-18T07:41:03.953Z,12.00
2018-10-18T07:44:07.349Z,13.43
2018-10-18T07:47:10.455Z,11.90
2018-10-18T07:50:14.064Z,12.20
2018-10-18T07:53:17.516Z,12.57
2018-10-18T07:56:20.461Z,11.10
2018-10-18T07:59:23.379Z,10.90
2018-10-18T08:02:26.298Z,12.57
2018-10-18T08:05:29.245Z,13.30
2018-10-18T08:08:32.165Z,12.83
2018-10-18T08:11:35.135Z,12.90
2018-10-18T08:14:38.172Z,13.43
2018-10-18T08:17:41.731Z,11.43
2018-10-18T08:20:44.617Z,12.80
2018-10-18T08:23:47.554Z,13.13
2018-10-18T08:26:50.509Z,13.17
2018-10-18T08:29:53.495Z,13.47
2018-10-18T08:32:56.453Z,12.03
2018-10-18T08:35:59.429Z,12.40
2018-10-18T08:39:02.595Z,11.00
2018-10-18T08:42:05.753Z,11.37
2018-10-18T08:45:09.799Z,12.60
2018-10-18T08:48:12.716Z,12.57
2018-10-18T08:51:15.698Z,11.37
2018-10-18T08:54:18.695Z,11.70
2018-10-18T08:57:21.659Z,11.93
2018-10-18T09:00:24.722Z,13.37
2018-10-18T09:03:27.788Z,14.30
2018-10-18T09:06:30.707Z,12.07
2018-10-18T09:09:33.633Z,11.70
2018-10-18T09:12:36.627Z,12.50
2018-10-18T09:15:39.598Z,12.30
2018-10-18T09:18:42.518Z,12.03
2018-10-18T09:21:45.456Z,14.30
2018-10-18T09:24:48.498Z,12.60
2018-10-18T09:27:51.506Z,11.60
2018-10-18T09:30:54.501Z,11.80
2018-10-18T09:33:57.424Z,12.93
2018-10-18T09:37:00.396Z,14.10
2018-10-18T09:40:03.713Z,13.73
2018-10-18T09:43:06.736Z,12.97
2018-10-18T09:46:09.597Z,11.93
2018-10-18T09:49:12.640Z,13.17
2018-10-18T09:52:15.494Z,16.57
2018-10-18T09:55:18.674Z,16.63
2018-10-18T09:58:21.501Z,18.57
2018-10-18T10:01:30.062Z,18.50
2018-10-18T10:04:33.043Z,16.30
2018-10-18T10:07:36.068Z,16.37
2018-10-18T10:10:38.962Z,15.67
2018-10-18T10:13:41.969Z,13.20
2018-10-18T10:16:44.929Z,12.43
2018-10-18T10:19:47.909Z,9.93
2018-10-18T10:22:50.869Z,10.23
2018-10-18T10:25:53.805Z,10.70
2018-10-18T10:28:56.750Z,7.00
2018-10-18T10:31:59.658Z,8.23
2018-10-18T10:35:02.787Z,6.50
2018-10-18T10:38:05.752Z,5.23
2018-10-18T10:41:08.744Z,5.80
2018-10-18T10:44:11.704Z,6.63
2018-10-18T10:47:14.646Z,6.23
2018-10-18T10:50:17.684Z,7.53
2018-10-18T10:53:20.596Z,7.13
2018-10-18T10:56:23.546Z,7.60
2018-10-18T10:59:26.519Z,6.30
2018-10-18T11:02:29.550Z,5.87
2018-10-18T11:05:32.542Z,4.33
2018-10-18T11:08:35.498Z,5.00
2018-10-18T11:11:38.455Z,5.23
2018-10-18T11:14:41.488Z,4.70
2018-10-18T11:17:44.433Z,5.93
2018-10-18T11:20:47.353Z,7.43
2018-10-18T11:23:50.249Z,6.77
2018-10-18T11:26:53.202Z,6.23
2018-10-18T11:29:56.158Z,5.20
2018-10-18T11:32:59.073Z,5.03
2018-10-18T11:36:02.155Z,5.50
2018-10-18T11:39:07.501Z,5.00
2018-10-18T11:42:10.459Z,4.50
2018-10-18T11:45:13.433Z,4.20
2018-10-18T11:48:16.591Z,3.17
2018-10-18T11:51:19.522Z,2.30
2018-10-18T11:54:22.477Z,2.30
2018-10-18T11:57:25.437Z,2.90
2018-10-18T12:00:28.474Z,3.23
2018-10-18T12:03:31.371Z,2.20
2018-10-18T12:06:34.525Z,2.73
2018-10-18T12:09:37.401Z,2.10
2018-10-18T12:12:40.305Z,3.97
2018-10-18T12:15:43.286Z,2.07
2018-10-18T12:18:46.180Z,2.50
2018-10-18T12:21:49.149Z,2.50
2018-10-18T12:24:52.261Z,2.93
2018-10-18T12:27:55.296Z,3.10
2018-10-18T12:30:58.265Z,2.30
2018-10-18T12:34:01.141Z,2.07
2018-10-18T12:37:04.229Z,2.10
2018-10-18T12:40:08.336Z,2.00
2018-10-18T12:43:11.255Z,1.67
2018-10-18T12:46:14.199Z,1.90
2018-10-18T12:49:17.148Z,2.00
2018-10-18T12:52:20.152Z,1.73
2018-10-18T12:55:23.101Z,3.50
2018-10-18T12:58:26.098Z,2.03
2018-10-18T13:01:29.049Z,1.80
2018-10-18T13:04:32.026Z,3.07
2018-10-18T13:07:34.950Z,2.07
2018-10-18T13:10:37.988Z,1.60
2018-10-18T13:13:41.141Z,2.47
2018-10-18T13:16:44.191Z,2.80
2018-10-18T13:19:47.076Z,5.13
2018-10-18T13:22:50.099Z,5.63
2018-10-18T13:25:53.130Z,4.33
2018-10-18T13:28:56.116Z,5.30
2018-10-18T13:31:59.221Z,6.90
2018-10-18T13:35:02.230Z,4.30
2018-10-18T13:38:05.500Z,10.33
2018-10-18T13:41:08.458Z,6.80
2018-10-18T13:44:11.724Z,6.13
2018-10-18T13:47:14.658Z,5.13
2018-10-18T13:50:17.655Z,6.67
2018-10-18T13:53:21.574Z,5.83
2018-10-18T13:56:24.831Z,5.60
2018-10-18T13:59:45.140Z,5.13
2018-10-18T14:02:48.299Z,5.03
2018-10-18T14:05:51.294Z,4.00
2018-10-18T14:08:54.292Z,4.77
2018-10-18T14:11:57.258Z,3.37
2018-10-18T14:15:00.217Z,3.60
2018-10-18T14:18:03.253Z,2.47
2018-10-18T14:21:06.891Z,2.87
2018-10-18T14:24:09.862Z,2.43
2018-10-18T14:27:12.825Z,2.30
2018-10-18T14:30:15.845Z,1.90
2018-10-18T14:33:18.799Z,1.47
2018-10-18T14:36:21.740Z,0.90
2018-10-18T14:39:24.682Z,1.37
2018-10-18T14:42:27.569Z,2.83
2018-10-18T14:45:30.551Z,1.37
2018-10-18T14:48:33.490Z,1.60
2018-10-18T14:51:36.504Z,1.90
2018-10-18T14:54:39.494Z,2.90
2018-10-18T14:57:49.161Z,1.47
2018-10-18T15:00:52.153Z,1.30
2018-10-18T15:03:55.184Z,2.17
2018-10-18T15:06:58.106Z,2.20
2018-10-18T15:10:01.073Z,2.10
2018-10-18T15:13:04.463Z,1.63
2018-10-18T15:16:07.402Z,3.10
2018-10-18T15:19:10.401Z,2.50
2018-10-18T15:22:13.382Z,3.53
2018-10-18T15:25:16.476Z,2.10
2018-10-18T15:28:19.330Z,2.60
2018-10-18T15:31:22.328Z,2.50
2018-10-18T15:34:25.362Z,1.90
2018-10-18T15:37:28.297Z,2.80
2018-10-18T15:40:31.241Z,2.50
2018-10-18T15:43:34.134Z,3.20
2018-10-18T15:46:37.452Z,3.47
2018-10-18T15:49:40.364Z,3.50
2018-10-18T15:52:43.326Z,3.07
2018-10-18T15:55:46.272Z,3.53
2018-10-18T15:58:49.199Z,2.70
2018-10-18T16:01:52.133Z,3.40
2018-10-18T16:04:55.051Z,3.07
2018-10-18T16:07:57.985Z,3.60
2018-10-18T16:11:01.008Z,2.10
2018-10-18T16:14:03.908Z,2.97
2018-10-18T16:17:07.029Z,2.47
2018-10-18T16:20:10.282Z,2.80
2018-10-18T16:23:13.190Z,2.80
2018-10-18T16:26:16.162Z,2.30
2018-10-18T16:29:19.179Z,3.90
2018-10-18T16:32:22.020Z,3.30
2018-10-18T16:35:24.981Z,3.57
2018-10-18T16:38:27.913Z,3.83
2018-10-18T16:41:31.048Z,3.23
2018-10-18T16:44:33.945Z,3.43
2018-10-18T16:47:36.959Z,4.10
2018-10-18T16:50:39.931Z,3.17
2018-10-18T16:53:42.863Z,4.13
2018-10-18T16:56:45.773Z,4.03
2018-10-18T16:59:48.676Z,2.57
2018-10-18T17:02:51.581Z,3.20
2018-10-18T17:05:54.575Z,3.30
2018-10-18T17:08:57.488Z,3.20
2018-10-18T17:12:00.539Z,2.57
2018-10-18T17:15:03.850Z,4.13
2018-10-18T17:18:06.823Z,3.40
2018-10-18T17:21:09.788Z,4.40
2018-10-18T17:24:12.751Z,4.70
2018-10-18T17:27:15.883Z,4.57
2018-10-18T17:30:18.679Z,3.30
2018-10-18T17:33:21.532Z,3.00
2018-10-18T17:36:24.903Z,3.40
2018-10-18T17:39:27.825Z,3.33
2018-10-18T17:42:30.753Z,3.27
2018-10-18T17:45:33.764Z,2.57
2018-10-18T17:48:36.733Z,3.27
2018-10-18T17:51:39.720Z,2.73
2018-10-18T17:54:42.683Z,2.50
2018-10-18T17:57:45.664Z,2.37
2018-10-18T18:00:48.674Z,2.27
2018-10-18T18:03:51.812Z,2.17
2018-10-18T18:06:54.793Z,2.30
2018-10-18T18:09:57.755Z,3.63
2018-10-18T18:13:00.669Z,3.40
2018-10-18T18:16:04.881Z,3.83
2018-10-18T18:19:07.889Z,3.60
2018-10-18T18:22:10.892Z,3.17
2018-10-18T18:25:13.774Z,3.60
2018-10-18T18:28:16.706Z,3.60
2018-10-18T18:31:19.666Z,3.30
2018-10-18T18:34:22.621Z,3.83
2018-10-18T18:37:25.620Z,4.60
2018-10-18T18:40:28.537Z,4.20
2018-10-18T18:43:31.752Z,5.10
2018-10-18T18:46:34.750Z,5.00
2018-10-18T18:49:37.696Z,5.23
2018-10-18T18:52:40.661Z,5.80
2018-10-18T18:55:43.624Z,6.30
2018-10-18T18:58:46.574Z,6.30
2018-10-18T19:01:49.477Z,7.40
2018-10-18T19:04:52.465Z,6.80
2018-10-18T19:07:55.426Z,8.40
2018-10-18T19:10:58.358Z,5.13
2018-10-18T19:14:01.251Z,6.47
2018-10-18T19:17:04.530Z,6.10
2018-10-18T19:20:07.569Z,6.00
2018-10-18T19:23:10.743Z,5.27
2018-10-18T19:26:13.744Z,5.20
2018-10-18T19:29:16.614Z,6.93
2018-10-18T19:32:19.582Z,7.33
2018-10-18T19:35:22.522Z,6.50
2018-10-18T19:38:25.527Z,9.33
2018-10-18T19:41:28.440Z,7.27
2018-10-18T19:44:31.387Z,6.10
2018-10-18T19:47:34.354Z,6.40
2018-10-18T19:50:37.322Z,6.27
2018-10-18T19:53:40.306Z,7.40
2018-10-18T19:56:43.215Z,6.27
2018-10-18T19:59:46.111Z,6.77
2018-10-18T20:02:49.042Z,5.77
2018-10-18T20:05:51.978Z,7.03
2018-10-18T20:08:54.949Z,5.40
2018-10-18T20:11:57.887Z,5.77
2018-10-18T20:15:01.006Z,7.30
2018-10-18T20:18:03.997Z,5.70
2018-10-18T20:21:07.312Z,8.97
2018-10-18T20:24:10.529Z,5.80
2018-10-18T20:27:13.487Z,6.20
2018-10-18T20:30:16.502Z,6.70
2018-10-18T20:33:19.445Z,6.70
2018-10-18T20:36:22.411Z,5.03
2018-10-18T20:39:25.356Z,4.87
2018-10-18T20:42:28.479Z,4.40
2018-10-18T20:45:32.211Z,4.60
2018-10-18T20:48:35.225Z,4.63
2018-10-18T20:51:38.187Z,6.47
2018-10-18T20:54:41.134Z,5.07
2018-10-18T20:57:44.074Z,4.57
2018-10-18T21:00:47.070Z,5.47
2018-10-18T21:03:50.188Z,5.70
2018-10-18T21:06:53.140Z,5.50
2018-10-18T21:09:56.098Z,5.60
2018-10-18T21:12:59.791Z,6.07
2018-10-18T21:16:02.850Z,5.43
2018-10-18T21:19:05.872Z,5.60
2018-10-18T21:22:08.826Z,6.37
2018-10-18T21:25:12.176Z,5.93
2018-10-18T21:28:15.136Z,5.43
2018-10-18T21:31:18.077Z,5.07
2018-10-18T21:34:21.118Z,5.13
2018-10-18T21:37:24.112Z,5.13
2018-10-18T21:40:27.073Z,4.90
2018-10-18T21:43:30.018Z,7.00
2018-10-18T21:46:32.974Z,4.90
2018-10-18T21:49:36.014Z,4.30
2018-10-18T21:52:39.057Z,5.40
2018-10-18T21:55:42.029Z,4.80
2018-10-18T21:58:44.931Z,8.40
2018-10-18T22:01:47.914Z,5.50
2018-10-18T22:04:50.833Z,6.17
2018-10-18T22:07:53.804Z,5.60
2018-10-18T22:10:56.747Z,5.10
2018-10-18T22:13:59.660Z,3.93
2018-10-18T22:17:02.669Z,4.40
2018-10-18T22:20:07.256Z,4.63
2018-10-18T22:23:10.327Z,4.10
2018-10-18T22:26:13.227Z,4.47
2018-10-18T22:29:16.316Z,4.77
2018-10-18T22:32:19.271Z,5.30
2018-10-18T22:35:22.223Z,4.00
2018-10-18T22:38:25.170Z,4.53
2018-10-18T22:41:28.185Z,5.67
2018-10-18T22:44:31.138Z,4.30
2018-10-18T22:47:34.093Z,5.13
2018-10-18T22:50:37.014Z,4.53
2018-10-18T22:53:40.073Z,3.73
2018-10-18T22:56:43.037Z,5.90
2018-10-18T22:59:46.012Z,5.97
2018-10-18T23:02:49.044Z,6.07
2018-10-18T23:05:52.035Z,4.73
2018-10-18T23:08:54.994Z,3.77
2018-10-18T23:11:57.935Z,3.80
2018-10-18T23:15:00.880Z,5.73
2018-10-18T23:18:04.248Z,4.43
2018-10-18T23:21:07.232Z,4.77
2018-10-18T23:24:10.160Z,4.77
2018-10-18T23:27:12.716Z,4.90
2018-10-18T23:30:15.580Z,3.53
2018-10-18T23:33:18.522Z,4.30
2018-10-18T23:36:21.413Z,4.70
2018-10-18T23:39:24.337Z,4.43
2018-10-18T23:42:27.305Z,4.70
2018-10-18T23:45:30.230Z,4.83
2018-10-18T23:48:33.142Z,4.60
2018-10-18T23:51:36.154Z,4.67
2018-10-18T23:54:39.118Z,4.60
2018-10-18T23:57:42.118Z,3.97
